sensor_id;sensor_type;location;lat;lon;timestamp;P1;durP1;ratioP1;P2;durP2;ratioP2
35550;SDS011;21655;46.056;13.616;2022-08-21T00:00:32;2.80;;;1.00;;
35550;SDS011;21655;46.056;13.616;2022-08-21T00:03:00;4.90;;;1.20;;
35550;SDS011;21655;46.056;13.616;2022-08-21T00:05:27;5.30;;;1.58;;
35550;SDS011;21655;46.056;13.616;2022-08-21T00:07:54;2.65;;;1.08;;
35550;SDS011;21655;46.056;13.616;2022-08-21T00:10:20;6.03;;;1.50;;
35550;SDS011;21655;46.056;13.616;2022-08-21T00:12:46;10.45;;;1.35;;
35550;SDS011;21655;46.056;13.616;2022-08-21T00:15:14;3.40;;;1.13;;
35550;SDS011;21655;46.056;13.616;2022-08-21T00:17:43;5.22;;;1.23;;
35550;SDS011;21655;46.056;13.616;2022-08-21T00:20:09;4.70;;;1.25;;
35550;SDS011;21655;46.056;13.616;2022-08-21T00:22:36;2.25;;;1.30;;
35550;SDS011;21655;46.056;13.616;2022-08-21T00:25:03;7.00;;;1.65;;
35550;SDS011;21655;46.056;13.616;2022-08-21T00:27:30;5.18;;;1.00;;
35550;SDS011;21655;46.056;13.616;2022-08-21T00:29:56;5.43;;;1.33;;
35550;SDS011;21655;46.056;13.616;2022-08-21T00:32:22;3.00;;;1.20;;
35550;SDS011;21655;46.056;13.616;2022-08-21T00:34:49;3.47;;;1.15;;
35550;SDS011;21655;46.056;13.616;2022-08-21T00:37:15;3.28;;;0.95;;
35550;SDS011;21655;46.056;13.616;2022-08-21T00:39:41;4.05;;;1.10;;
35550;SDS011;21655;46.056;13.616;2022-08-21T00:42:06;2.65;;;1.10;;
35550;SDS011;21655;46.056;13.616;2022-08-21T00:44:32;3.35;;;1.30;;
35550;SDS011;21655;46.056;13.616;2022-08-21T00:46:58;4.72;;;1.10;;
35550;SDS011;21655;46.056;13.616;2022-08-21T00:49:23;4.80;;;1.10;;
35550;SDS011;21655;46.056;13.616;2022-08-21T00:51:50;10.02;;;1.30;;
35550;SDS011;21655;46.056;13.616;2022-08-21T00:54:19;3.13;;;1.10;;
35550;SDS011;21655;46.056;13.616;2022-08-21T00:56:48;6.88;;;1.48;;
35550;SDS011;21655;46.056;13.616;2022-08-21T00:59:18;3.78;;;1.02;;
35550;SDS011;21655;46.056;13.616;2022-08-21T01:01:45;5.68;;;1.20;;
35550;SDS011;21655;46.056;13.616;2022-08-21T01:04:11;5.03;;;1.23;;
35550;SDS011;21655;46.056;13.616;2022-08-21T01:06:36;5.50;;;1.45;;
35550;SDS011;21655;46.056;13.616;2022-08-21T01:09:02;6.43;;;1.63;;
35550;SDS011;21655;46.056;13.616;2022-08-21T01:11:28;4.65;;;1.10;;
35550;SDS011;21655;46.056;13.616;2022-08-21T01:13:53;3.67;;;1.60;;
35550;SDS011;21655;46.056;13.616;2022-08-21T01:16:20;4.30;;;1.13;;
35550;SDS011;21655;46.056;13.616;2022-08-21T01:18:47;6.68;;;1.73;;
35550;SDS011;21655;46.056;13.616;2022-08-21T01:21:18;2.40;;;1.02;;
35550;SDS011;21655;46.056;13.616;2022-08-21T01:23:48;3.40;;;1.30;;
35550;SDS011;21655;46.056;13.616;2022-08-21T01:26:16;4.80;;;1.63;;
35550;SDS011;21655;46.056;13.616;2022-08-21T01:28:44;5.35;;;1.17;;
35550;SDS011;21655;46.056;13.616;2022-08-21T01:31:14;5.53;;;1.10;;
35550;SDS011;21655;46.056;13.616;2022-08-21T01:33:40;1.52;;;0.90;;
35550;SDS011;21655;46.056;13.616;2022-08-21T01:36:06;2.10;;;1.00;;
35550;SDS011;21655;46.056;13.616;2022-08-21T01:38:31;6.40;;;1.02;;
35550;SDS011;21655;46.056;13.616;2022-08-21T01:40:57;6.45;;;0.98;;
35550;SDS011;21655;46.056;13.616;2022-08-21T01:43:23;2.60;;;1.00;;
35550;SDS011;21655;46.056;13.616;2022-08-21T01:45:48;5.30;;;1.23;;
35550;SDS011;21655;46.056;13.616;2022-08-21T01:48:14;6.18;;;1.48;;
35550;SDS011;21655;46.056;13.616;2022-08-21T01:50:39;4.22;;;1.00;;
35550;SDS011;21655;46.056;13.616;2022-08-21T01:53:05;4.15;;;1.08;;
35550;SDS011;21655;46.056;13.616;2022-08-21T01:55:30;3.70;;;1.15;;
35550;SDS011;21655;46.056;13.616;2022-08-21T01:57:56;6.53;;;1.08;;
35550;SDS011;21655;46.056;13.616;2022-08-21T02:00:24;2.33;;;1.40;;
35550;SDS011;21655;46.056;13.616;2022-08-21T02:02:49;5.65;;;1.17;;
35550;SDS011;21655;46.056;13.616;2022-08-21T02:05:15;2.70;;;1.30;;
35550;SDS011;21655;46.056;13.616;2022-08-21T02:07:45;2.65;;;1.00;;
35550;SDS011;21655;46.056;13.616;2022-08-21T02:10:16;7.07;;;1.23;;
35550;SDS011;21655;46.056;13.616;2022-08-21T02:12:52;4.88;;;1.20;;
35550;SDS011;21655;46.056;13.616;2022-08-21T02:15:18;3.13;;;1.20;;
35550;SDS011;21655;46.056;13.616;2022-08-21T02:17:46;2.97;;;1.38;;
35550;SDS011;21655;46.056;13.616;2022-08-21T02:20:18;4.57;;;1.80;;
35550;SDS011;21655;46.056;13.616;2022-08-21T02:22:55;6.45;;;1.10;;
35550;SDS011;21655;46.056;13.616;2022-08-21T02:25:21;3.30;;;1.00;;
35550;SDS011;21655;46.056;13.616;2022-08-21T02:27:48;5.75;;;1.42;;
35550;SDS011;21655;46.056;13.616;2022-08-21T02:30:15;2.08;;;1.00;;
35550;SDS011;21655;46.056;13.616;2022-08-21T02:32:43;4.75;;;1.50;;
35550;SDS011;21655;46.056;13.616;2022-08-21T02:35:09;6.70;;;1.20;;
35550;SDS011;21655;46.056;13.616;2022-08-21T02:38:10;2.95;;;1.13;;
35550;SDS011;21655;46.056;13.616;2022-08-21T02:40:30;5.38;;;1.00;;
35550;SDS011;21655;46.056;13.616;2022-08-21T02:42:58;4.00;;;1.00;;
35550;SDS011;21655;46.056;13.616;2022-08-21T02:45:24;6.18;;;1.08;;
35550;SDS011;21655;46.056;13.616;2022-08-21T02:47:51;3.50;;;1.10;;
35550;SDS011;21655;46.056;13.616;2022-08-21T02:50:20;7.68;;;1.30;;
35550;SDS011;21655;46.056;13.616;2022-08-21T02:52:48;4.75;;;0.90;;
35550;SDS011;21655;46.056;13.616;2022-08-21T02:55:14;5.40;;;1.00;;
35550;SDS011;21655;46.056;13.616;2022-08-21T02:57:40;2.65;;;1.10;;
35550;SDS011;21655;46.056;13.616;2022-08-21T03:00:06;3.55;;;1.10;;
35550;SDS011;21655;46.056;13.616;2022-08-21T03:02:33;5.22;;;1.20;;
35550;SDS011;21655;46.056;13.616;2022-08-21T03:05:01;2.60;;;1.08;;
35550;SDS011;21655;46.056;13.616;2022-08-21T03:07:26;6.45;;;1.00;;
35550;SDS011;21655;46.056;13.616;2022-08-21T03:09:52;4.57;;;1.00;;
35550;SDS011;21655;46.056;13.616;2022-08-21T03:12:17;3.38;;;1.10;;
35550;SDS011;21655;46.056;13.616;2022-08-21T03:14:43;5.53;;;1.30;;
35550;SDS011;21655;46.056;13.616;2022-08-21T03:17:08;3.30;;;0.90;;
35550;SDS011;21655;46.056;13.616;2022-08-21T03:19:34;2.95;;;1.30;;
35550;SDS011;21655;46.056;13.616;2022-08-21T03:21:59;4.10;;;1.10;;
35550;SDS011;21655;46.056;13.616;2022-08-21T03:24:25;1.90;;;1.17;;
35550;SDS011;21655;46.056;13.616;2022-08-21T03:26:51;4.30;;;1.10;;
35550;SDS011;21655;46.056;13.616;2022-08-21T03:29:16;6.15;;;1.30;;
35550;SDS011;21655;46.056;13.616;2022-08-21T03:31:42;6.05;;;1.20;;
35550;SDS011;21655;46.056;13.616;2022-08-21T03:34:08;3.53;;;1.00;;
35550;SDS011;21655;46.056;13.616;2022-08-21T03:36:33;15.20;;;1.95;;
35550;SDS011;21655;46.056;13.616;2022-08-21T03:38:59;8.02;;;1.30;;
35550;SDS011;21655;46.056;13.616;2022-08-21T03:41:24;4.82;;;1.40;;
35550;SDS011;21655;46.056;13.616;2022-08-21T03:43:50;2.03;;;1.15;;
35550;SDS011;21655;46.056;13.616;2022-08-21T03:46:15;2.60;;;1.15;;
35550;SDS011;21655;46.056;13.616;2022-08-21T03:48:41;4.30;;;1.08;;
35550;SDS011;21655;46.056;13.616;2022-08-21T03:51:06;5.78;;;1.15;;
35550;SDS011;21655;46.056;13.616;2022-08-21T03:53:33;2.78;;;1.20;;
35550;SDS011;21655;46.056;13.616;2022-08-21T03:55:59;3.72;;;1.20;;
35550;SDS011;21655;46.056;13.616;2022-08-21T03:58:25;1.48;;;1.02;;
35550;SDS011;21655;46.056;13.616;2022-08-21T04:00:53;7.00;;;1.33;;
35550;SDS011;21655;46.056;13.616;2022-08-21T04:03:21;6.00;;;1.40;;
35550;SDS011;21655;46.056;13.616;2022-08-21T04:05:47;7.50;;;1.30;;
35550;SDS011;21655;46.056;13.616;2022-08-21T04:08:13;5.65;;;1.08;;
35550;SDS011;21655;46.056;13.616;2022-08-21T04:10:43;4.35;;;1.30;;
35550;SDS011;21655;46.056;13.616;2022-08-21T04:13:10;3.08;;;1.17;;
35550;SDS011;21655;46.056;13.616;2022-08-21T04:15:35;5.35;;;1.17;;
35550;SDS011;21655;46.056;13.616;2022-08-21T04:18:02;2.60;;;0.93;;
35550;SDS011;21655;46.056;13.616;2022-08-21T04:20:28;2.97;;;1.20;;
35550;SDS011;21655;46.056;13.616;2022-08-21T04:22:54;9.65;;;1.98;;
35550;SDS011;21655;46.056;13.616;2022-08-21T04:25:20;14.23;;;1.50;;
35550;SDS011;21655;46.056;13.616;2022-08-21T04:27:48;4.75;;;1.20;;
35550;SDS011;21655;46.056;13.616;2022-08-21T04:30:14;2.38;;;1.30;;
35550;SDS011;21655;46.056;13.616;2022-08-21T04:32:44;3.63;;;1.20;;
35550;SDS011;21655;46.056;13.616;2022-08-21T04:35:12;2.40;;;1.27;;
35550;SDS011;21655;46.056;13.616;2022-08-21T04:37:39;5.60;;;1.92;;
35550;SDS011;21655;46.056;13.616;2022-08-21T04:40:05;3.58;;;1.52;;
35550;SDS011;21655;46.056;13.616;2022-08-21T04:42:31;4.65;;;1.30;;
35550;SDS011;21655;46.056;13.616;2022-08-21T04:44:57;4.35;;;1.00;;
35550;SDS011;21655;46.056;13.616;2022-08-21T04:47:23;4.03;;;1.25;;
35550;SDS011;21655;46.056;13.616;2022-08-21T04:49:49;3.83;;;1.38;;
35550;SDS011;21655;46.056;13.616;2022-08-21T04:52:17;3.25;;;1.15;;
35550;SDS011;21655;46.056;13.616;2022-08-21T04:54:45;6.72;;;1.40;;
35550;SDS011;21655;46.056;13.616;2022-08-21T04:57:13;2.67;;;1.10;;
35550;SDS011;21655;46.056;13.616;2022-08-21T04:59:43;5.97;;;1.23;;
35550;SDS011;21655;46.056;13.616;2022-08-21T05:02:12;5.00;;;1.30;;
35550;SDS011;21655;46.056;13.616;2022-08-21T05:04:42;7.43;;;1.23;;
35550;SDS011;21655;46.056;13.616;2022-08-21T05:07:12;6.20;;;1.10;;
35550;SDS011;21655;46.056;13.616;2022-08-21T05:09:42;3.45;;;1.40;;
35550;SDS011;21655;46.056;13.616;2022-08-21T05:12:08;3.05;;;1.27;;
35550;SDS011;21655;46.056;13.616;2022-08-21T05:14:34;4.43;;;1.15;;
35550;SDS011;21655;46.056;13.616;2022-08-21T05:17:00;8.05;;;1.40;;
35550;SDS011;21655;46.056;13.616;2022-08-21T05:19:25;3.17;;;1.30;;
35550;SDS011;21655;46.056;13.616;2022-08-21T05:21:51;7.65;;;1.20;;
35550;SDS011;21655;46.056;13.616;2022-08-21T05:24:17;4.68;;;1.30;;
35550;SDS011;21655;46.056;13.616;2022-08-21T05:26:42;2.67;;;1.15;;
35550;SDS011;21655;46.056;13.616;2022-08-21T05:29:09;2.70;;;1.70;;
35550;SDS011;21655;46.056;13.616;2022-08-21T05:31:36;7.68;;;2.03;;
35550;SDS011;21655;46.056;13.616;2022-08-21T05:34:01;4.88;;;1.63;;
35550;SDS011;21655;46.056;13.616;2022-08-21T05:36:27;5.93;;;1.70;;
35550;SDS011;21655;46.056;13.616;2022-08-21T05:38:53;4.90;;;1.55;;
35550;SDS011;21655;46.056;13.616;2022-08-21T05:41:18;4.40;;;1.48;;
35550;SDS011;21655;46.056;13.616;2022-08-21T05:43:44;5.72;;;1.00;;
35550;SDS011;21655;46.056;13.616;2022-08-21T05:46:09;2.67;;;0.90;;
35550;SDS011;21655;46.056;13.616;2022-08-21T05:48:35;3.15;;;0.90;;
35550;SDS011;21655;46.056;13.616;2022-08-21T05:51:07;6.50;;;1.00;;
35550;SDS011;21655;46.056;13.616;2022-08-21T05:53:34;4.63;;;1.00;;
35550;SDS011;21655;46.056;13.616;2022-08-21T05:56:00;4.95;;;0.90;;
35550;SDS011;21655;46.056;13.616;2022-08-21T05:58:28;1.67;;;0.80;;
35550;SDS011;21655;46.056;13.616;2022-08-21T06:00:55;2.17;;;0.70;;
35550;SDS011;21655;46.056;13.616;2022-08-21T06:03:22;2.45;;;1.10;;
35550;SDS011;21655;46.056;13.616;2022-08-21T06:05:48;5.72;;;0.98;;
35550;SDS011;21655;46.056;13.616;2022-08-21T06:08:15;9.10;;;0.90;;
35550;SDS011;21655;46.056;13.616;2022-08-21T06:10:43;7.63;;;1.17;;
35550;SDS011;21655;46.056;13.616;2022-08-21T06:13:10;10.10;;;1.13;;
35550;SDS011;21655;46.056;13.616;2022-08-21T06:15:36;3.67;;;1.13;;
35550;SDS011;21655;46.056;13.616;2022-08-21T06:18:02;3.13;;;0.90;;
35550;SDS011;21655;46.056;13.616;2022-08-21T06:20:28;6.45;;;1.13;;
35550;SDS011;21655;46.056;13.616;2022-08-21T06:22:53;2.58;;;1.02;;
35550;SDS011;21655;46.056;13.616;2022-08-21T06:25:19;3.72;;;1.00;;
35550;SDS011;21655;46.056;13.616;2022-08-21T06:27:45;2.88;;;0.88;;
35550;SDS011;21655;46.056;13.616;2022-08-21T06:30:11;2.88;;;1.05;;
35550;SDS011;21655;46.056;13.616;2022-08-21T06:32:36;3.00;;;0.98;;
35550;SDS011;21655;46.056;13.616;2022-08-21T06:35:02;4.47;;;1.20;;
35550;SDS011;21655;46.056;13.616;2022-08-21T06:37:28;7.53;;;1.13;;
35550;SDS011;21655;46.056;13.616;2022-08-21T06:39:54;2.45;;;1.10;;
35550;SDS011;21655;46.056;13.616;2022-08-21T06:42:19;4.03;;;1.08;;
35550;SDS011;21655;46.056;13.616;2022-08-21T06:44:46;4.18;;;1.02;;
35550;SDS011;21655;46.056;13.616;2022-08-21T06:47:12;3.45;;;1.10;;
35550;SDS011;21655;46.056;13.616;2022-08-21T06:49:38;8.50;;;1.20;;
35550;SDS011;21655;46.056;13.616;2022-08-21T06:52:08;2.88;;;0.93;;
35550;SDS011;21655;46.056;13.616;2022-08-21T06:54:37;2.27;;;0.90;;
35550;SDS011;21655;46.056;13.616;2022-08-21T06:57:04;3.10;;;0.77;;
35550;SDS011;21655;46.056;13.616;2022-08-21T06:59:29;3.30;;;0.90;;
35550;SDS011;21655;46.056;13.616;2022-08-21T07:01:55;1.67;;;0.80;;
35550;SDS011;21655;46.056;13.616;2022-08-21T07:04:21;3.05;;;0.80;;
35550;SDS011;21655;46.056;13.616;2022-08-21T07:06:46;3.50;;;0.90;;
35550;SDS011;21655;46.056;13.616;2022-08-21T07:09:12;4.30;;;0.75;;
35550;SDS011;21655;46.056;13.616;2022-08-21T07:11:37;2.15;;;0.80;;
35550;SDS011;21655;46.056;13.616;2022-08-21T07:14:03;2.58;;;0.95;;
35550;SDS011;21655;46.056;13.616;2022-08-21T07:16:29;3.67;;;1.05;;
35550;SDS011;21655;46.056;13.616;2022-08-21T07:18:55;6.22;;;0.85;;
35550;SDS011;21655;46.056;13.616;2022-08-21T07:21:20;1.52;;;0.68;;
35550;SDS011;21655;46.056;13.616;2022-08-21T07:23:47;1.38;;;0.75;;
35550;SDS011;21655;46.056;13.616;2022-08-21T07:26:17;1.02;;;0.60;;
35550;SDS011;21655;46.056;13.616;2022-08-21T07:28:45;1.17;;;0.70;;
35550;SDS011;21655;46.056;13.616;2022-08-21T07:31:12;2.70;;;0.70;;
35550;SDS011;21655;46.056;13.616;2022-08-21T07:33:40;1.88;;;0.77;;
35550;SDS011;21655;46.056;13.616;2022-08-21T07:36:06;5.28;;;0.85;;
35550;SDS011;21655;46.056;13.616;2022-08-21T07:38:31;3.50;;;0.80;;
35550;SDS011;21655;46.056;13.616;2022-08-21T07:40:57;2.17;;;1.00;;
35550;SDS011;21655;46.056;13.616;2022-08-21T07:43:25;1.85;;;0.80;;
35550;SDS011;21655;46.056;13.616;2022-08-21T07:45:51;3.00;;;0.80;;
35550;SDS011;21655;46.056;13.616;2022-08-21T07:48:16;5.40;;;0.80;;
35550;SDS011;21655;46.056;13.616;2022-08-21T07:50:42;3.28;;;0.80;;
35550;SDS011;21655;46.056;13.616;2022-08-21T07:53:08;2.95;;;0.60;;
35550;SDS011;21655;46.056;13.616;2022-08-21T07:55:33;3.42;;;0.80;;
35550;SDS011;21655;46.056;13.616;2022-08-21T07:57:59;4.18;;;0.80;;
35550;SDS011;21655;46.056;13.616;2022-08-21T08:00:25;3.38;;;0.70;;
35550;SDS011;21655;46.056;13.616;2022-08-21T08:02:53;2.65;;;0.77;;
35550;SDS011;21655;46.056;13.616;2022-08-21T08:05:20;3.20;;;0.60;;
35550;SDS011;21655;46.056;13.616;2022-08-21T08:07:47;7.55;;;0.80;;
35550;SDS011;21655;46.056;13.616;2022-08-21T08:10:12;1.25;;;0.80;;
35550;SDS011;21655;46.056;13.616;2022-08-21T08:12:39;1.00;;;0.70;;
35550;SDS011;21655;46.056;13.616;2022-08-21T08:15:07;2.20;;;0.50;;
35550;SDS011;21655;46.056;13.616;2022-08-21T08:17:35;1.55;;;0.60;;
35550;SDS011;21655;46.056;13.616;2022-08-21T08:20:04;3.72;;;0.60;;
35550;SDS011;21655;46.056;13.616;2022-08-21T08:22:33;1.27;;;0.60;;
35550;SDS011;21655;46.056;13.616;2022-08-21T08:25:00;1.73;;;0.60;;
35550;SDS011;21655;46.056;13.616;2022-08-21T08:27:26;1.05;;;0.50;;
35550;SDS011;21655;46.056;13.616;2022-08-21T08:29:52;1.98;;;0.70;;
35550;SDS011;21655;46.056;13.616;2022-08-21T08:32:18;2.05;;;0.50;;
35550;SDS011;21655;46.056;13.616;2022-08-21T08:34:43;2.30;;;0.70;;
35550;SDS011;21655;46.056;13.616;2022-08-21T08:37:09;1.38;;;0.40;;
35550;SDS011;21655;46.056;13.616;2022-08-21T08:39:36;8.68;;;0.70;;
35550;SDS011;21655;46.056;13.616;2022-08-21T08:42:06;1.00;;;0.50;;
35550;SDS011;21655;46.056;13.616;2022-08-21T08:44:39;1.08;;;0.57;;
35550;SDS011;21655;46.056;13.616;2022-08-21T08:47:10;0.85;;;0.52;;
35550;SDS011;21655;46.056;13.616;2022-08-21T08:49:40;1.05;;;0.60;;
35550;SDS011;21655;46.056;13.616;2022-08-21T08:52:21;1.67;;;0.57;;
35550;SDS011;21655;46.056;13.616;2022-08-21T08:55:00;4.03;;;0.50;;
35550;SDS011;21655;46.056;13.616;2022-08-21T08:57:29;2.15;;;0.80;;
35550;SDS011;21655;46.056;13.616;2022-08-21T08:59:58;1.33;;;0.65;;
35550;SDS011;21655;46.056;13.616;2022-08-21T09:02:25;1.00;;;0.85;;
35550;SDS011;21655;46.056;13.616;2022-08-21T09:04:52;0.88;;;0.50;;
35550;SDS011;21655;46.056;13.616;2022-08-21T09:12:40;3.17;;;0.77;;
35550;SDS011;21655;46.056;13.616;2022-08-21T09:18:58;1.85;;;0.63;;
35550;SDS011;21655;46.056;13.616;2022-08-21T09:26:26;2.70;;;0.70;;
35550;SDS011;21655;46.056;13.616;2022-08-21T09:28:58;3.15;;;0.70;;
35550;SDS011;21655;46.056;13.616;2022-08-21T09:34:00;5.93;;;1.30;;
35550;SDS011;21655;46.056;13.616;2022-08-21T09:39:22;1.90;;;0.70;;
35550;SDS011;21655;46.056;13.616;2022-08-21T09:42:07;1.02;;;0.60;;
35550;SDS011;21655;46.056;13.616;2022-08-21T09:44:35;1.48;;;0.50;;
35550;SDS011;21655;46.056;13.616;2022-08-21T09:47:07;2.42;;;0.95;;
35550;SDS011;21655;46.056;13.616;2022-08-21T09:49:35;4.90;;;0.75;;
35550;SDS011;21655;46.056;13.616;2022-08-21T09:52:18;1.35;;;0.60;;
35550;SDS011;21655;46.056;13.616;2022-08-21T09:54:46;2.88;;;0.60;;
35550;SDS011;21655;46.056;13.616;2022-08-21T09:57:20;1.52;;;0.60;;
35550;SDS011;21655;46.056;13.616;2022-08-21T10:00:15;3.00;;;0.68;;
35550;SDS011;21655;46.056;13.616;2022-08-21T10:02:49;2.80;;;0.70;;
35550;SDS011;21655;46.056;13.616;2022-08-21T10:07:42;1.73;;;0.65;;
35550;SDS011;21655;46.056;13.616;2022-08-21T10:10:16;1.70;;;0.50;;
35550;SDS011;21655;46.056;13.616;2022-08-21T10:15:24;1.80;;;0.70;;
35550;SDS011;21655;46.056;13.616;2022-08-21T10:34:49;1.40;;;0.50;;
35550;SDS011;21655;46.056;13.616;2022-08-21T10:42:31;1.45;;;0.60;;
35550;SDS011;21655;46.056;13.616;2022-08-21T10:45:11;2.20;;;0.70;;
35550;SDS011;21655;46.056;13.616;2022-08-21T10:47:54;0.68;;;0.32;;
35550;SDS011;21655;46.056;13.616;2022-08-21T10:55:31;0.53;;;0.30;;
35550;SDS011;21655;46.056;13.616;2022-08-21T10:57:58;1.45;;;0.30;;
35550;SDS011;21655;46.056;13.616;2022-08-21T11:03:03;0.30;;;0.30;;
35550;SDS011;21655;46.056;13.616;2022-08-21T11:05:38;0.28;;;0.28;;
35550;SDS011;21655;46.056;13.616;2022-08-21T11:08:12;0.63;;;0.30;;
35550;SDS011;21655;46.056;13.616;2022-08-21T11:13:59;0.47;;;0.30;;
35550;SDS011;21655;46.056;13.616;2022-08-21T11:16:37;0.40;;;0.30;;
35550;SDS011;21655;46.056;13.616;2022-08-21T11:27:06;0.50;;;0.40;;
35550;SDS011;21655;46.056;13.616;2022-08-21T11:29:56;2.17;;;0.43;;
35550;SDS011;21655;46.056;13.616;2022-08-21T11:32:31;1.63;;;0.80;;
35550;SDS011;21655;46.056;13.616;2022-08-21T11:43:17;1.58;;;0.85;;
35550;SDS011;21655;46.056;13.616;2022-08-21T11:49:11;1.20;;;0.60;;
35550;SDS011;21655;46.056;13.616;2022-08-21T11:54:44;1.40;;;0.70;;
35550;SDS011;21655;46.056;13.616;2022-08-21T11:57:30;1.90;;;0.60;;
35550;SDS011;21655;46.056;13.616;2022-08-21T12:02:35;1.13;;;0.57;;
35550;SDS011;21655;46.056;13.616;2022-08-21T12:05:08;0.85;;;0.60;;
35550;SDS011;21655;46.056;13.616;2022-08-21T12:07:40;1.38;;;0.55;;
35550;SDS011;21655;46.056;13.616;2022-08-21T12:10:13;0.82;;;0.50;;
35550;SDS011;21655;46.056;13.616;2022-08-21T12:12:42;2.42;;;0.80;;
35550;SDS011;21655;46.056;13.616;2022-08-21T12:18:30;1.40;;;0.52;;
35550;SDS011;21655;46.056;13.616;2022-08-21T12:23:59;0.68;;;0.50;;
35550;SDS011;21655;46.056;13.616;2022-08-21T12:26:35;1.45;;;0.60;;
35550;SDS011;21655;46.056;13.616;2022-08-21T12:29:13;1.00;;;0.60;;
35550;SDS011;21655;46.056;13.616;2022-08-21T12:31:59;1.90;;;0.70;;
35550;SDS011;21655;46.056;13.616;2022-08-21T12:34:30;4.05;;;0.70;;
35550;SDS011;21655;46.056;13.616;2022-08-21T12:37:02;1.23;;;0.50;;
35550;SDS011;21655;46.056;13.616;2022-08-21T12:39:32;1.30;;;0.60;;
35550;SDS011;21655;46.056;13.616;2022-08-21T12:42:06;1.52;;;0.70;;
35550;SDS011;21655;46.056;13.616;2022-08-21T12:44:55;2.15;;;0.70;;
35550;SDS011;21655;46.056;13.616;2022-08-21T12:47:27;1.30;;;0.70;;
35550;SDS011;21655;46.056;13.616;2022-08-21T12:50:08;1.00;;;0.50;;
35550;SDS011;21655;46.056;13.616;2022-08-21T12:52:48;1.63;;;0.73;;
35550;SDS011;21655;46.056;13.616;2022-08-21T12:57:53;2.40;;;0.57;;
35550;SDS011;21655;46.056;13.616;2022-08-21T13:00:20;2.97;;;0.82;;
35550;SDS011;21655;46.056;13.616;2022-08-21T13:02:49;1.80;;;0.60;;
35550;SDS011;21655;46.056;13.616;2022-08-21T13:05:23;2.20;;;0.73;;
35550;SDS011;21655;46.056;13.616;2022-08-21T13:07:50;2.03;;;0.80;;
35550;SDS011;21655;46.056;13.616;2022-08-21T13:10:18;1.65;;;0.65;;
35550;SDS011;21655;46.056;13.616;2022-08-21T13:12:44;1.63;;;0.90;;
35550;SDS011;21655;46.056;13.616;2022-08-21T13:15:11;1.05;;;0.63;;
35550;SDS011;21655;46.056;13.616;2022-08-21T13:17:39;1.48;;;0.80;;
35550;SDS011;21655;46.056;13.616;2022-08-21T13:20:18;3.05;;;0.65;;
35550;SDS011;21655;46.056;13.616;2022-08-21T13:22:44;2.30;;;0.80;;
35550;SDS011;21655;46.056;13.616;2022-08-21T13:25:14;2.10;;;0.93;;
35550;SDS011;21655;46.056;13.616;2022-08-21T13:27:42;1.92;;;0.90;;
35550;SDS011;21655;46.056;13.616;2022-08-21T13:30:13;3.28;;;0.70;;
35550;SDS011;21655;46.056;13.616;2022-08-21T13:32:48;3.00;;;1.02;;
35550;SDS011;21655;46.056;13.616;2022-08-21T13:37:44;2.75;;;0.95;;
35550;SDS011;21655;46.056;13.616;2022-08-21T13:40:14;4.72;;;0.90;;
35550;SDS011;21655;46.056;13.616;2022-08-21T13:42:47;4.63;;;1.13;;
35550;SDS011;21655;46.056;13.616;2022-08-21T13:45:24;3.30;;;1.10;;
35550;SDS011;21655;46.056;13.616;2022-08-21T13:47:52;4.05;;;1.50;;
35550;SDS011;21655;46.056;13.616;2022-08-21T13:50:19;3.20;;;1.05;;
35550;SDS011;21655;46.056;13.616;2022-08-21T13:52:49;2.60;;;1.10;;
35550;SDS011;21655;46.056;13.616;2022-08-21T13:55:33;2.70;;;1.10;;
35550;SDS011;21655;46.056;13.616;2022-08-21T13:58:08;3.30;;;1.10;;
35550;SDS011;21655;46.056;13.616;2022-08-21T14:00:46;6.82;;;1.27;;
35550;SDS011;21655;46.056;13.616;2022-08-21T14:03:15;3.75;;;1.20;;
35550;SDS011;21655;46.056;13.616;2022-08-21T14:05:52;2.17;;;1.10;;
35550;SDS011;21655;46.056;13.616;2022-08-21T14:08:29;2.17;;;1.00;;
35550;SDS011;21655;46.056;13.616;2022-08-21T14:10:59;3.60;;;1.35;;
35550;SDS011;21655;46.056;13.616;2022-08-21T14:15:58;2.70;;;1.20;;
35550;SDS011;21655;46.056;13.616;2022-08-21T14:18:26;4.40;;;1.25;;
35550;SDS011;21655;46.056;13.616;2022-08-21T14:21:03;4.97;;;1.13;;
35550;SDS011;21655;46.056;13.616;2022-08-21T14:23:33;5.75;;;1.38;;
35550;SDS011;21655;46.056;13.616;2022-08-21T14:25:59;3.08;;;1.33;;
35550;SDS011;21655;46.056;13.616;2022-08-21T14:28:29;4.78;;;1.70;;
35550;SDS011;21655;46.056;13.616;2022-08-21T14:31:10;4.25;;;1.48;;
35550;SDS011;21655;46.056;13.616;2022-08-21T14:33:43;4.55;;;1.67;;
35550;SDS011;21655;46.056;13.616;2022-08-21T14:36:09;3.75;;;1.40;;
35550;SDS011;21655;46.056;13.616;2022-08-21T14:38:36;4.32;;;1.30;;
35550;SDS011;21655;46.056;13.616;2022-08-21T14:41:12;2.85;;;1.10;;
35550;SDS011;21655;46.056;13.616;2022-08-21T14:43:41;2.58;;;1.08;;
35550;SDS011;21655;46.056;13.616;2022-08-21T14:46:07;4.80;;;1.30;;
35550;SDS011;21655;46.056;13.616;2022-08-21T14:48:33;4.18;;;1.13;;
35550;SDS011;21655;46.056;13.616;2022-08-21T14:50:58;4.68;;;1.02;;
35550;SDS011;21655;46.056;13.616;2022-08-21T14:53:23;3.13;;;1.25;;
35550;SDS011;21655;46.056;13.616;2022-08-21T14:55:49;3.75;;;1.17;;
35550;SDS011;21655;46.056;13.616;2022-08-21T14:58:30;3.22;;;0.90;;
35550;SDS011;21655;46.056;13.616;2022-08-21T15:00:57;3.55;;;0.95;;
35550;SDS011;21655;46.056;13.616;2022-08-21T15:03:23;3.30;;;0.93;;
35550;SDS011;21655;46.056;13.616;2022-08-21T15:05:52;3.90;;;0.80;;
35550;SDS011;21655;46.056;13.616;2022-08-21T15:08:17;2.63;;;0.80;;
35550;SDS011;21655;46.056;13.616;2022-08-21T15:10:43;2.00;;;0.70;;
35550;SDS011;21655;46.056;13.616;2022-08-21T15:13:09;3.30;;;0.82;;
35550;SDS011;21655;46.056;13.616;2022-08-21T15:15:39;5.85;;;1.10;;
35550;SDS011;21655;46.056;13.616;2022-08-21T15:18:07;2.55;;;0.90;;
35550;SDS011;21655;46.056;13.616;2022-08-21T15:20:34;3.55;;;1.25;;
35550;SDS011;21655;46.056;13.616;2022-08-21T15:22:59;4.93;;;1.33;;
35550;SDS011;21655;46.056;13.616;2022-08-21T15:25:25;3.53;;;1.20;;
35550;SDS011;21655;46.056;13.616;2022-08-21T15:27:50;4.90;;;1.42;;
35550;SDS011;21655;46.056;13.616;2022-08-21T15:30:16;7.65;;;1.20;;
35550;SDS011;21655;46.056;13.616;2022-08-21T15:32:42;7.30;;;1.58;;
35550;SDS011;21655;46.056;13.616;2022-08-21T15:35:07;14.45;;;2.30;;
35550;SDS011;21655;46.056;13.616;2022-08-21T15:37:34;16.23;;;2.85;;
35550;SDS011;21655;46.056;13.616;2022-08-21T15:39:59;18.88;;;2.85;;
35550;SDS011;21655;46.056;13.616;2022-08-21T15:42:25;17.90;;;3.67;;
35550;SDS011;21655;46.056;13.616;2022-08-21T15:44:52;11.48;;;2.72;;
35550;SDS011;21655;46.056;13.616;2022-08-21T15:47:30;14.05;;;3.15;;
35550;SDS011;21655;46.056;13.616;2022-08-21T15:49:59;9.70;;;2.78;;
35550;SDS011;21655;46.056;13.616;2022-08-21T15:52:25;9.38;;;2.95;;
35550;SDS011;21655;46.056;13.616;2022-08-21T15:54:50;12.15;;;3.10;;
35550;SDS011;21655;46.056;13.616;2022-08-21T15:57:18;14.68;;;3.03;;
35550;SDS011;21655;46.056;13.616;2022-08-21T15:59:50;17.63;;;3.00;;
35550;SDS011;21655;46.056;13.616;2022-08-21T16:02:30;14.32;;;3.60;;
35550;SDS011;21655;46.056;13.616;2022-08-21T16:04:56;9.88;;;2.47;;
35550;SDS011;21655;46.056;13.616;2022-08-21T16:07:22;12.27;;;3.65;;
35550;SDS011;21655;46.056;13.616;2022-08-21T16:09:48;17.63;;;4.47;;
35550;SDS011;21655;46.056;13.616;2022-08-21T16:12:19;13.48;;;3.55;;
35550;SDS011;21655;46.056;13.616;2022-08-21T16:14:48;8.90;;;2.53;;
35550;SDS011;21655;46.056;13.616;2022-08-21T16:17:16;11.35;;;3.03;;